Marion, Arkansas
Current Conditions -  °F | °C
As of 2:53 PM on Friday 31 Oct 2014 (Local Time) from KAWM Reporting Station
Broken Clouds Broken Clouds  
Wind Chill: 57°   Ceiling: 5000
Heat Index: 57°   Visibility: 10mi
Dew Point: 42°   Wind: 13mph
Humidity: 57%   Direction: 350°N
Pressure: 30.15"   Gusts: 21mph
Location:  35.21°N, 90.2°W
Report Text: KAWM 311953Z AUTO 35011G18KT 310V020 10SM SCT043 BKN050 14/06 A3015 RMK AO2 SLP210 T01390056
Loading
Personal Weather Stations






























Interactive Weather Map
Tropical Storm Tracking
New forecast layout! Learn more

10-Day Weather Forecast

Advertisements
Track Severe Weather on mobile